createdAt,value
2019-03-05T00:00:29.061Z,10.22
2019-03-05T00:01:09.447Z,10.25
2019-03-05T00:01:51.574Z,10.18
2019-03-05T00:02:34.809Z,10.17
2019-03-05T00:03:17.542Z,10.17
2019-03-05T00:03:57.995Z,10.24
2019-03-05T00:04:39.342Z,10.29
2019-03-05T00:05:22.857Z,10.2
2019-03-05T00:06:04.153Z,10.25
2019-03-05T00:06:44.555Z,10.22
2019-03-05T00:07:27.352Z,10.29
2019-03-05T00:08:07.744Z,10.31
2019-03-05T00:08:48.239Z,10.24
2019-03-05T00:09:38.924Z,10.17
2019-03-05T00:10:20.293Z,10.25
2019-03-05T00:11:00.804Z,10.2
2019-03-05T00:11:42.599Z,10.2
2019-03-05T00:12:23.646Z,10.26
2019-03-05T00:13:03.990Z,10.28
2019-03-05T00:13:45.263Z,10.26
2019-03-05T00:14:25.676Z,10.26
2019-03-05T00:15:07.948Z,10.2
2019-03-05T00:15:48.361Z,10.2
2019-03-05T00:16:29.680Z,10.2
2019-03-05T00:17:10.883Z,10.2
2019-03-05T00:17:51.342Z,10.2
2019-03-05T00:18:31.580Z,10.26
2019-03-05T00:19:13.202Z,10.26
2019-03-05T00:19:53.664Z,10.29
2019-03-05T00:20:34.297Z,10.24
2019-03-05T00:21:14.673Z,10.29
2019-03-05T00:21:57.070Z,10.28
2019-03-05T00:22:39.640Z,10.22
2019-03-05T00:23:22.324Z,10.22
2019-03-05T00:24:02.663Z,10.24
2019-03-05T00:24:43.415Z,10.26
2019-03-05T00:25:23.981Z,10.28
2019-03-05T00:26:04.429Z,10.22
2019-03-05T00:26:45.048Z,10.14
2019-03-05T00:27:25.420Z,10.24
2019-03-05T00:28:05.915Z,10.28
2019-03-05T00:28:46.426Z,10.24
2019-03-05T00:29:26.886Z,10.35
2019-03-05T00:30:09.302Z,10.2
2019-03-05T00:30:50.611Z,10.2
2019-03-05T00:31:31.187Z,10.25
2019-03-05T00:32:12.733Z,10.22
2019-03-05T00:32:53.179Z,10.16
2019-03-05T00:33:33.733Z,10.18
2019-03-05T00:34:14.204Z,10.22
2019-03-05T00:34:54.543Z,10.25
2019-03-05T00:35:34.863Z,10.22
2019-03-05T00:36:17.241Z,10.25
2019-03-05T00:36:59.716Z,10.07
2019-03-05T00:37:40.055Z,9.99
2019-03-05T00:38:22.313Z,10.11
2019-03-05T00:39:02.713Z,9.99
2019-03-05T00:39:44.796Z,10.07
2019-03-05T00:40:27.232Z,9.99
2019-03-05T00:41:07.727Z,10.06
2019-03-05T00:41:50.737Z,10.02
2019-03-05T00:42:31.671Z,10.16
2019-03-05T00:43:12.143Z,10.13
2019-03-05T00:43:54.086Z,9.99
2019-03-05T00:44:34.504Z,9.92
2019-03-05T00:45:14.886Z,9.98
2019-03-05T00:45:57.295Z,9.95
2019-03-05T00:46:40.307Z,9.89
2019-03-05T00:47:21.672Z,9.89
2019-03-05T00:48:02.081Z,9.77
2019-03-05T00:48:42.538Z,9.75
2019-03-05T00:49:22.861Z,9.65
2019-03-05T00:50:03.373Z,9.67
2019-03-05T00:50:46.271Z,9.6
2019-03-05T00:51:29.812Z,9.59
2019-03-05T00:52:14.305Z,9.63
2019-03-05T00:52:54.820Z,9.75
2019-03-05T00:53:36.959Z,9.74
2019-03-05T00:54:17.277Z,9.74
2019-03-05T00:54:57.740Z,9.78
2019-03-05T00:55:39.791Z,9.71
2019-03-05T00:56:20.270Z,9.67
2019-03-05T00:57:01.069Z,9.68
2019-03-05T00:57:41.495Z,9.55
2019-03-05T00:58:23.762Z,9.4
2019-03-05T00:59:04.439Z,9.38
2019-03-05T00:59:45.001Z,9.32
2019-03-05T01:00:25.396Z,9.42
2019-03-05T01:01:06.624Z,9.44
2019-03-05T01:01:47.385Z,9.4
2019-03-05T01:02:27.942Z,9.26
2019-03-05T01:03:13.843Z,9.23
2019-03-05T01:03:55.740Z,9.2
2019-03-05T01:04:37.936Z,9.12
2019-03-05T01:05:18.599Z,9.16
2019-03-05T01:06:02.581Z,9.06
2019-03-05T01:06:42.941Z,9.17
2019-03-05T01:07:23.332Z,9.19
2019-03-05T01:08:03.776Z,9.24
2019-03-05T01:08:45.842Z,9.16
2019-03-05T01:09:27.855Z,9.08
2019-03-05T01:10:08.243Z,8.89
2019-03-05T01:10:54.473Z,8.93
2019-03-05T01:11:36.609Z,8.98
2019-03-05T01:12:18.939Z,8.89
2019-03-05T01:12:59.200Z,8.89
2019-03-05T01:13:40.696Z,8.94
2019-03-05T01:14:23.352Z,8.93
2019-03-05T01:15:03.786Z,8.86
2019-03-05T01:15:46.080Z,8.86
2019-03-05T01:16:28.088Z,8.88
2019-03-05T01:17:10.579Z,8.79
2019-03-05T01:17:52.998Z,8.61
2019-03-05T01:18:34.956Z,8.58
2019-03-05T01:19:15.262Z,8.47
2019-03-05T01:19:55.937Z,8.37
2019-03-05T01:20:36.479Z,8.36
2019-03-05T01:21:16.829Z,8.36
2019-03-05T01:21:58.081Z,8.37
2019-03-05T01:22:38.858Z,8.5
2019-03-05T01:23:20.206Z,8.47
2019-03-05T01:24:02.410Z,8.58
2019-03-05T01:24:42.856Z,8.5
2019-03-05T01:25:23.225Z,8.43
2019-03-05T01:26:05.475Z,8.49
2019-03-05T01:26:47.662Z,8.42
2019-03-05T01:27:29.589Z,8.37
2019-03-05T01:28:09.996Z,8.39
2019-03-05T01:28:51.404Z,8.47
2019-03-05T01:29:32.911Z,8.46
2019-03-05T01:30:18.869Z,8.47
2019-03-05T01:31:03.361Z,8.6
2019-03-05T01:31:43.834Z,8.58
2019-03-05T01:32:28.269Z,8.55
2019-03-05T01:33:10.311Z,8.52
2019-03-05T01:33:52.782Z,8.55
2019-03-05T01:34:34.049Z,8.5
2019-03-05T01:35:14.333Z,8.58
2019-03-05T01:35:55.797Z,8.75
2019-03-05T01:36:36.193Z,8.76
2019-03-05T01:37:16.667Z,8.78
2019-03-05T01:37:57.049Z,8.8
2019-03-05T01:38:42.879Z,8.86
2019-03-05T01:39:23.288Z,8.73
2019-03-05T01:40:06.540Z,8.65
2019-03-05T01:40:46.986Z,8.71
2019-03-05T01:41:28.417Z,8.7
2019-03-05T01:42:10.071Z,8.73
2019-03-05T01:42:51.437Z,8.75
2019-03-05T01:43:31.825Z,8.7
2019-03-05T01:44:15.756Z,8.68
2019-03-05T01:44:56.365Z,8.79
2019-03-05T01:45:36.754Z,8.76
2019-03-05T01:46:17.214Z,8.83
2019-03-05T01:46:59.248Z,8.83
2019-03-05T01:47:40.949Z,8.73
2019-03-05T01:48:21.366Z,8.89
2019-03-05T01:49:02.001Z,8.86
2019-03-05T01:49:42.394Z,8.82
2019-03-05T01:50:24.572Z,8.71
2019-03-05T01:51:04.909Z,8.68
2019-03-05T01:51:46.099Z,8.8
2019-03-05T01:52:28.246Z,8.75
2019-03-05T01:53:08.804Z,8.79
2019-03-05T01:53:50.165Z,8.75
2019-03-05T01:54:32.076Z,8.78
2019-03-05T01:55:16.258Z,8.75
2019-03-05T01:55:56.655Z,8.76
2019-03-05T01:56:38.903Z,8.8
2019-03-05T01:57:21.267Z,8.86
2019-03-05T01:58:01.639Z,8.94
2019-03-05T01:58:42.111Z,8.94
2019-03-05T01:59:24.359Z,9.08
2019-03-05T02:00:06.442Z,9.01
2019-03-05T02:00:47.806Z,9.06
2019-03-05T02:01:28.260Z,8.94
2019-03-05T02:02:08.718Z,8.94
2019-03-05T02:02:49.071Z,8.78
2019-03-05T02:03:29.509Z,8.79
2019-03-05T02:04:11.395Z,8.88
2019-03-05T02:04:53.483Z,8.83
2019-03-05T02:05:35.119Z,8.91
2019-03-05T02:06:15.512Z,8.83
2019-03-05T02:06:57.259Z,8.88
2019-03-05T02:07:39.994Z,8.94
2019-03-05T02:08:21.828Z,8.94
2019-03-05T02:09:06.262Z,8.93
2019-03-05T02:09:48.456Z,9.06
2019-03-05T02:10:28.701Z,9.08
2019-03-05T02:11:09.232Z,8.97
2019-03-05T02:11:49.641Z,8.94
2019-03-05T02:12:31.260Z,9.03
2019-03-05T02:13:12.606Z,9.1
2019-03-05T02:13:53.382Z,8.88
2019-03-05T02:14:33.863Z,9.06
2019-03-05T02:15:17.331Z,8.94
2019-03-05T02:15:57.622Z,8.79
2019-03-05T02:16:38.309Z,8.85
2019-03-05T02:17:18.771Z,8.85
2019-03-05T02:18:00.829Z,8.97
2019-03-05T02:18:41.308Z,9.12
2019-03-05T02:19:21.842Z,9.04
2019-03-05T02:20:02.669Z,9.08
2019-03-05T02:20:46.753Z,9.16
2019-03-05T02:21:27.908Z,9.2
2019-03-05T02:22:08.389Z,9.16
2019-03-05T02:22:49.724Z,9.16
2019-03-05T02:23:31.156Z,9.1
2019-03-05T02:24:11.663Z,9.1
2019-03-05T02:24:55.320Z,9.08
2019-03-05T02:25:37.521Z,9.06
2019-03-05T02:26:20.102Z,9.13
2019-03-05T02:27:00.495Z,9.12
2019-03-05T02:27:40.864Z,9.1
2019-03-05T02:28:22.910Z,9.12
2019-03-05T02:29:03.314Z,9.08
2019-03-05T02:29:47.260Z,9.08
2019-03-05T02:30:27.653Z,9.12
2019-03-05T02:31:10.177Z,9.08
2019-03-05T02:31:52.264Z,9.12
2019-03-05T02:32:33.677Z,9.17
2019-03-05T02:33:15.134Z,9.17
2019-03-05T02:33:55.956Z,9.23
2019-03-05T02:34:37.309Z,9.31
2019-03-05T02:35:17.606Z,9.13
2019-03-05T02:35:57.976Z,9.2
2019-03-05T02:36:38.376Z,9.16
2019-03-05T02:37:18.819Z,9.08
2019-03-05T02:37:59.512Z,9.15
2019-03-05T02:38:39.902Z,9.08
2019-03-05T02:39:23.856Z,8.94
2019-03-05T02:40:05.363Z,9.03
2019-03-05T02:40:46.016Z,8.93
2019-03-05T02:41:28.275Z,8.91
2019-03-05T02:42:08.640Z,9.15
2019-03-05T02:42:50.862Z,9.06
2019-03-05T02:43:33.602Z,9.13
2019-03-05T02:44:14.121Z,9.12
2019-03-05T02:44:56.258Z,9.2
2019-03-05T02:45:36.662Z,9.2
2019-03-05T02:48:38.453Z,9.08
2019-03-05T02:49:25.209Z,9.12
2019-03-05T02:50:08.033Z,9.17
2019-03-05T02:50:48.622Z,9.16
2019-03-05T02:51:29.079Z,9.15
2019-03-05T02:52:10.040Z,9.13
2019-03-05T02:52:50.587Z,9.15
2019-03-05T02:53:31.200Z,9.08
2019-03-05T02:54:12.577Z,9.08
2019-03-05T02:54:52.940Z,9.1
2019-03-05T02:55:33.875Z,9.08
2019-03-05T02:56:16.624Z,9.15
2019-03-05T02:56:59.541Z,9.1
2019-03-05T02:57:40.395Z,8.98
2019-03-05T02:58:20.801Z,9.12
2019-03-05T02:59:01.313Z,9.1
2019-03-05T02:59:41.787Z,9.16
2019-03-05T03:00:22.853Z,9.2
2019-03-05T03:01:03.025Z,9.27
2019-03-05T03:01:43.584Z,9.12
2019-03-05T03:02:24.030Z,9.19
2019-03-05T03:03:04.429Z,9.16
2019-03-05T03:03:44.829Z,9.17
2019-03-05T03:04:25.293Z,9.2
2019-03-05T03:05:05.878Z,9.12
2019-03-05T03:05:46.291Z,9.27
2019-03-05T03:06:26.670Z,9.35
2019-03-05T03:07:07.734Z,9.27
2019-03-05T03:07:47.936Z,9.26
2019-03-05T03:08:28.296Z,9.26
2019-03-05T03:09:08.791Z,9.34
2019-03-05T03:09:49.270Z,9.31
2019-03-05T03:10:29.926Z,9.41
2019-03-05T03:11:10.436Z,9.48
2019-03-05T03:11:50.997Z,9.37
2019-03-05T03:12:31.366Z,9.31
2019-03-05T03:13:12.023Z,9.26
2019-03-05T03:13:52.430Z,9.31
2019-03-05T03:14:33.180Z,9.27
2019-03-05T03:15:13.547Z,9.34
2019-03-05T03:15:53.916Z,9.34
2019-03-05T03:16:34.434Z,9.26
2019-03-05T03:17:15.437Z,9.37
2019-03-05T03:17:55.952Z,9.34
2019-03-05T03:18:36.446Z,9.3
2019-03-05T03:19:16.869Z,9.34
2019-03-05T03:19:57.617Z,9.3
2019-03-05T03:20:38.087Z,9.37
2019-03-05T03:21:18.410Z,9.41
2019-03-05T03:21:58.957Z,9.35
2019-03-05T03:22:39.558Z,9.26
2019-03-05T03:23:20.499Z,9.26
2019-03-05T03:24:01.198Z,9.37
2019-03-05T03:24:41.627Z,9.42
2019-03-05T03:25:22.392Z,9.45
2019-03-05T03:26:03.103Z,9.5
2019-03-05T03:26:43.432Z,9.55
2019-03-05T03:27:24.639Z,9.65
2019-03-05T03:28:05.483Z,9.68
2019-03-05T03:28:45.767Z,9.68
2019-03-05T03:29:26.660Z,9.63
2019-03-05T03:30:07.223Z,9.62
2019-03-05T03:30:48.202Z,9.62
2019-03-05T03:31:28.814Z,9.65
2019-03-05T03:32:09.280Z,9.71
2019-03-05T03:32:50.816Z,9.7
2019-03-05T03:33:32.030Z,9.74
2019-03-05T03:34:13.264Z,9.63
2019-03-05T03:34:53.555Z,9.68
2019-03-05T03:35:33.987Z,9.68
2019-03-05T03:36:14.421Z,9.68
2019-03-05T03:36:54.825Z,9.63
2019-03-05T03:37:36.775Z,9.65
2019-03-05T03:38:17.325Z,9.59
2019-03-05T03:38:57.959Z,9.67
2019-03-05T03:39:39.579Z,9.83
2019-03-05T03:40:19.815Z,9.77
2019-03-05T03:41:00.518Z,9.77
2019-03-05T03:41:41.759Z,9.75
2019-03-05T03:42:22.736Z,9.78
2019-03-05T03:43:03.087Z,9.75
2019-03-05T03:43:44.331Z,9.85
2019-03-05T03:44:24.998Z,9.85
2019-03-05T03:45:08.084Z,9.77
2019-03-05T03:45:49.089Z,9.73
2019-03-05T03:47:37.495Z,9.71
2019-03-05T03:48:27.613Z,9.8
2019-03-05T03:50:17.922Z,9.59
2019-03-05T03:51:06.994Z,9.68
2019-03-05T03:51:46.348Z,9.59
2019-03-05T03:52:26.877Z,9.56
2019-03-05T03:53:07.401Z,9.53
2019-03-05T03:53:47.998Z,9.56
2019-03-05T03:54:28.462Z,9.49
2019-03-05T03:55:08.937Z,9.42
2019-03-05T03:55:49.237Z,9.53
2019-03-05T03:56:29.971Z,9.5
2019-03-05T03:57:10.634Z,9.67
2019-03-05T03:57:51.515Z,9.56
2019-03-05T03:58:31.980Z,9.41
2019-03-05T03:59:12.378Z,9.26
2019-03-05T04:01:12.350Z,9.27
2019-03-05T04:01:52.172Z,9.3
2019-03-05T04:02:33.402Z,9.3
2019-03-05T04:03:14.481Z,9.15
2019-03-05T04:03:56.058Z,9.12
2019-03-05T04:04:37.599Z,9.08
2019-03-05T04:06:38.457Z,9.16
2019-03-05T04:07:20.657Z,9.2
2019-03-05T04:08:01.043Z,9.35
2019-03-05T04:08:41.456Z,9.34
2019-03-05T04:09:21.800Z,9.32
2019-03-05T04:10:02.187Z,9.35
2019-03-05T04:10:42.852Z,9.35
2019-03-05T04:11:23.677Z,9.31
2019-03-05T04:12:04.934Z,9.26
2019-03-05T04:12:46.462Z,9.3
2019-03-05T04:13:28.357Z,9.24
2019-03-05T04:14:08.890Z,9.23
2019-03-05T04:22:20.123Z,9.32
2019-03-05T04:23:02.351Z,9.26
2019-03-05T04:23:43.117Z,9.23
2019-03-05T04:24:24.298Z,9.22
2019-03-05T04:25:04.615Z,9.19
2019-03-05T04:25:45.181Z,9.19
2019-03-05T04:26:25.661Z,9.16
2019-03-05T05:09:10.537Z,9.08
2019-03-05T05:09:53.312Z,9.1
2019-03-05T05:10:34.533Z,8.97
2019-03-05T05:11:15.111Z,8.96
2019-03-05T05:11:56.345Z,8.83
2019-03-05T05:12:37.676Z,8.88
2019-03-05T05:13:18.116Z,8.8
2019-03-05T05:13:58.978Z,8.86
2019-03-05T05:14:39.745Z,8.91
2019-03-05T05:15:20.761Z,9
2019-03-05T05:16:01.295Z,8.82
2019-03-05T05:16:42.407Z,8.79
2019-03-05T05:17:23.000Z,8.85
2019-03-05T05:18:03.563Z,8.85
2019-03-05T05:18:43.998Z,8.91
2019-03-05T05:19:24.458Z,8.89
2019-03-05T05:20:04.790Z,8.89
2019-03-05T05:20:45.197Z,8.98
2019-03-05T05:21:25.729Z,9.04
2019-03-05T05:22:06.266Z,9
2019-03-05T05:22:46.721Z,8.98
2019-03-05T05:23:27.125Z,9.1
2019-03-05T05:24:08.410Z,9.1
2019-03-05T05:24:49.085Z,9.08
2019-03-05T05:25:29.710Z,9.04
2019-03-05T05:26:10.488Z,9.1
2019-03-05T05:26:50.940Z,9.16
2019-03-05T05:27:31.403Z,9.22
2019-03-05T05:28:14.052Z,9.3
2019-03-05T05:28:54.966Z,9.23
2019-03-05T05:29:35.380Z,9.3
2019-03-05T05:30:16.747Z,9.31
2019-03-05T05:30:57.192Z,9.32
2019-03-05T05:31:37.874Z,9.42
2019-03-05T05:32:18.342Z,9.32
2019-03-05T05:32:58.773Z,9.24
2019-03-05T05:33:39.186Z,9.32
2019-03-05T05:34:19.603Z,9.35
2019-03-05T05:35:00.001Z,9.32
2019-03-05T05:35:40.855Z,9.42
2019-03-05T05:36:21.274Z,9.34
2019-03-05T05:37:01.744Z,9.38
2019-03-05T05:37:42.297Z,9.32
2019-03-05T05:38:22.727Z,9.34
2019-03-05T05:39:03.164Z,9.32
2019-03-05T05:39:43.656Z,9.34
2019-03-05T05:40:24.439Z,9.31
2019-03-05T05:41:05.058Z,9.27
2019-03-05T05:41:45.699Z,9.23
2019-03-05T05:42:26.023Z,9.15
2019-03-05T05:43:06.616Z,9.16
2019-03-05T05:43:47.341Z,9.24
2019-03-05T05:44:27.739Z,9.23
2019-03-05T05:45:08.213Z,9.24
2019-03-05T05:45:48.589Z,9.32
2019-03-05T05:46:29.253Z,9.35
2019-03-05T05:47:09.716Z,9.3
2019-03-05T05:47:50.126Z,9.31
2019-03-05T05:48:31.279Z,9.37
2019-03-05T05:49:11.799Z,9.32
2019-03-05T05:49:52.475Z,9.32
2019-03-05T05:51:48.272Z,9.3
2019-03-05T05:52:30.108Z,9.32
2019-03-05T05:53:12.951Z,9.27
2019-03-05T05:53:53.448Z,9.23
2019-03-05T05:54:35.283Z,9.23
2019-03-05T05:55:17.701Z,9.3
2019-03-05T05:55:59.106Z,9.24
2019-03-05T05:56:40.063Z,9.27
2019-03-05T05:57:21.169Z,9.2
2019-03-05T05:58:01.618Z,9.22
2019-03-05T05:58:42.557Z,9.27
2019-03-05T05:59:23.659Z,9.19
2019-03-05T06:00:05.207Z,9.12
2019-03-05T06:00:46.189Z,9.19
2019-03-05T06:01:26.202Z,9.23
2019-03-05T06:02:06.681Z,9.2
2019-03-05T06:02:47.800Z,9.17
2019-03-05T06:03:28.690Z,9.16
2019-03-05T06:04:09.927Z,9.19
2019-03-05T06:04:53.136Z,9.12
2019-03-05T06:05:34.307Z,9.1
2019-03-05T06:08:27.149Z,8.89
2019-03-05T06:09:09.742Z,8.86
2019-03-05T06:09:50.849Z,8.89
2019-03-05T06:10:32.544Z,8.93
2019-03-05T06:11:15.344Z,8.97
2019-03-05T06:11:55.948Z,8.97
2019-03-05T06:13:49.553Z,8.73
2019-03-05T06:14:29.604Z,8.8
2019-03-05T06:15:10.787Z,8.8
2019-03-05T06:15:51.293Z,8.76
2019-03-05T06:16:31.782Z,8.8
2019-03-05T06:17:12.874Z,8.76
2019-03-05T06:17:53.881Z,8.75
2019-03-05T06:18:34.321Z,8.8
2019-03-05T06:19:14.811Z,8.75
2019-03-05T06:19:55.200Z,8.54
2019-03-05T06:20:36.828Z,8.61
2019-03-05T06:21:17.875Z,8.61
2019-03-05T06:21:57.776Z,8.49
2019-03-05T06:22:38.324Z,8.5
2019-03-05T06:23:21.125Z,8.43
2019-03-05T06:24:02.390Z,8.45
2019-03-05T06:24:43.594Z,8.39
2019-03-05T06:25:24.009Z,8.52
2019-03-05T06:26:04.398Z,8.5
2019-03-05T06:26:44.796Z,8.47
2019-03-05T06:27:28.426Z,8.54
2019-03-05T06:28:08.898Z,8.54
2019-03-05T06:28:49.683Z,8.57
2019-03-05T06:29:30.241Z,8.67
2019-03-05T06:30:17.156Z,8.57
2019-03-05T06:30:57.807Z,8.67
2019-03-05T06:31:38.855Z,8.54
2019-03-05T06:32:21.929Z,8.57
2019-03-05T06:33:04.966Z,8.67
2019-03-05T06:33:45.403Z,8.63
2019-03-05T06:34:28.245Z,8.78
2019-03-05T06:35:13.977Z,8.71
2019-03-05T06:35:55.448Z,8.7
2019-03-05T06:36:36.593Z,8.68
2019-03-05T06:37:27.599Z,8.73
2019-03-05T06:38:11.208Z,8.57
2019-03-05T06:38:51.205Z,8.55
2019-03-05T06:39:31.568Z,8.58
2019-03-05T06:40:12.297Z,8.63
2019-03-05T06:40:53.386Z,8.68
2019-03-05T06:41:35.461Z,8.61
2019-03-05T06:42:16.669Z,8.65
2019-03-05T06:42:57.624Z,8.75
2019-03-05T06:43:37.996Z,8.67
2019-03-05T06:44:19.242Z,8.67
2019-03-05T06:44:59.707Z,8.67
2019-03-05T06:45:41.296Z,8.58
2019-03-05T06:46:21.988Z,8.61
2019-03-05T06:47:06.740Z,8.63
2019-03-05T06:47:47.761Z,8.67
2019-03-05T06:48:29.105Z,8.54
2019-03-05T06:49:10.904Z,8.5
2019-03-05T06:49:51.430Z,8.58
2019-03-05T06:50:32.564Z,8.5
2019-03-05T06:51:12.944Z,8.37
2019-03-05T06:51:53.555Z,8.36
2019-03-05T06:52:34.067Z,8.36
2019-03-05T06:53:15.092Z,8.31
2019-03-05T06:53:55.517Z,8.34
2019-03-05T06:54:36.317Z,8.2
2019-03-05T06:55:16.763Z,8.29
2019-03-05T06:55:57.910Z,8.28
2019-03-05T06:56:38.309Z,8.22
2019-03-05T06:57:18.841Z,8.13
2019-03-05T06:57:59.568Z,8.2
2019-03-05T06:58:40.022Z,8.04
2019-03-05T06:59:20.735Z,7.91
2019-03-05T07:00:01.690Z,7.92
2019-03-05T07:00:42.222Z,7.86
2019-03-05T07:01:22.757Z,7.81
2019-03-05T07:02:03.739Z,7.79
2019-03-05T07:02:44.099Z,7.74
2019-03-05T07:03:25.532Z,7.84
2019-03-05T07:04:05.971Z,7.84
2019-03-05T07:04:46.408Z,7.66
2019-03-05T07:05:29.028Z,7.76
2019-03-05T07:06:09.843Z,7.74
2019-03-05T07:06:50.956Z,7.81
2019-03-05T07:07:32.410Z,7.82
2019-03-05T07:08:13.426Z,7.95
2019-03-05T07:11:23.122Z,7.82
2019-03-05T07:13:44.144Z,7.94
2019-03-05T07:14:35.149Z,7.95
2019-03-05T07:15:14.903Z,7.95
2019-03-05T07:15:55.725Z,7.94
2019-03-05T07:16:37.059Z,8.02
2019-03-05T07:17:17.810Z,7.91
2019-03-05T07:18:00.103Z,8.04
2019-03-05T07:18:43.126Z,8.09
2019-03-05T07:19:23.556Z,8.06
2019-03-05T07:20:10.174Z,7.99
2019-03-05T07:20:50.807Z,7.96
2019-03-05T07:21:31.556Z,7.99
2019-03-05T07:22:12.981Z,7.91
2019-03-05T07:22:57.787Z,8
2019-03-05T07:23:42.936Z,7.99
2019-03-05T07:24:21.065Z,8.02
2019-03-05T07:25:05.727Z,8.03
2019-03-05T07:25:47.198Z,8.1
2019-03-05T07:26:28.737Z,8.09
2019-03-05T07:27:09.883Z,8.1
2019-03-05T07:30:59.566Z,8.09
2019-03-05T07:33:06.326Z,8.13
2019-03-05T07:33:54.982Z,8.2
2019-03-05T07:34:51.669Z,8.22
2019-03-05T07:41:21.145Z,8.6
2019-03-05T07:43:01.019Z,8.54
2019-03-05T07:45:51.003Z,8.52
2019-03-05T07:49:19.742Z,8.47
2019-03-05T07:50:10.745Z,8.43
2019-03-05T07:51:03.219Z,8.5
2019-03-05T07:51:43.448Z,8.5
2019-03-05T07:52:24.001Z,8.54
2019-03-05T07:53:05.171Z,8.63
2019-03-05T07:53:45.623Z,8.6
2019-03-05T07:54:28.050Z,8.7
2019-03-05T07:55:13.410Z,8.78
2019-03-05T07:55:50.169Z,8.63
2019-03-05T07:56:32.275Z,8.65
2019-03-05T07:57:12.985Z,8.65
2019-03-05T07:57:55.077Z,8.63
2019-03-05T07:58:37.189Z,8.73
2019-03-05T07:59:19.310Z,8.79
2019-03-05T08:00:08.181Z,8.91
2019-03-05T08:00:49.492Z,8.85
2019-03-05T08:01:29.882Z,8.85
2019-03-05T08:02:10.393Z,8.78
2019-03-05T08:02:51.143Z,8.86
2019-03-05T08:03:31.620Z,8.91
2019-03-05T08:04:12.212Z,8.93
2019-03-05T08:04:53.637Z,8.94
2019-03-05T08:05:36.244Z,8.93
2019-03-05T08:06:18.709Z,8.94
2019-03-05T08:07:02.208Z,8.97
2019-03-05T08:07:42.823Z,8.71
2019-03-05T08:08:26.502Z,8.7
2019-03-05T08:09:03.794Z,8.76
2019-03-05T08:09:44.560Z,8.78
2019-03-05T08:10:26.003Z,8.91
2019-03-05T08:11:06.473Z,8.94
2019-03-05T08:11:47.189Z,8.94
2019-03-05T08:12:27.593Z,9.1
2019-03-05T08:13:08.139Z,9.17
2019-03-05T08:13:48.946Z,9.12
2019-03-05T08:14:29.498Z,9.16
2019-03-05T08:15:10.631Z,9.15
2019-03-05T08:16:01.862Z,9.17
2019-03-05T08:16:33.703Z,9.16
2019-03-05T08:17:14.827Z,9.12
2019-03-05T08:17:55.369Z,8.91
2019-03-05T08:18:37.671Z,8.97
2019-03-05T08:19:18.102Z,8.94
2019-03-05T08:20:01.007Z,8.94
2019-03-05T08:20:42.280Z,8.88
2019-03-05T08:21:23.166Z,8.88
2019-03-05T08:22:05.154Z,9
2019-03-05T08:22:46.074Z,9.1
2019-03-05T08:23:29.069Z,9.08
2019-03-05T08:24:10.180Z,9.06
2019-03-05T08:24:51.911Z,9.16
2019-03-05T08:25:32.528Z,9.15
2019-03-05T08:26:13.769Z,9.12
2019-03-05T08:26:54.242Z,9.15
2019-03-05T08:27:35.619Z,9.06
2019-03-05T08:28:16.969Z,9
2019-03-05T08:28:57.862Z,9.1
2019-03-05T08:29:39.927Z,9.13
2019-03-05T08:30:22.935Z,9.19
2019-03-05T08:31:07.523Z,9.27
2019-03-05T08:31:48.879Z,9.2
2019-03-05T08:32:29.915Z,9.24
2019-03-05T08:33:10.687Z,9.13
2019-03-05T08:35:11.749Z,9.31
2019-03-05T08:40:53.773Z,9.42
2019-03-05T08:41:44.721Z,9.56
2019-03-05T08:42:26.465Z,9.58
2019-03-05T08:43:10.037Z,9.67
2019-03-05T08:44:02.602Z,9.68
2019-03-05T08:44:50.182Z,9.63
2019-03-05T08:45:29.968Z,9.71
2019-03-05T08:46:12.148Z,9.74
2019-03-05T08:46:54.809Z,9.8
2019-03-05T08:47:38.070Z,9.77
2019-03-05T08:48:21.877Z,9.71
2019-03-05T08:49:08.184Z,9.75
2019-03-05T08:49:51.323Z,9.67
2019-03-05T08:50:46.972Z,9.52
2019-03-05T08:51:30.181Z,9.45
2019-03-05T08:52:14.433Z,9.41
2019-03-05T08:52:54.967Z,9.56
2019-03-05T08:53:35.241Z,9.58
2019-03-05T08:54:16.955Z,9.49
2019-03-05T08:54:57.436Z,9.41
2019-03-05T08:55:44.257Z,9.41
2019-03-05T08:56:31.580Z,9.48
2019-03-05T08:57:11.954Z,9.55
2019-03-05T08:57:54.150Z,9.6
2019-03-05T08:58:37.570Z,9.65
2019-03-05T08:59:17.986Z,9.78
2019-03-05T09:00:03.448Z,9.77
2019-03-05T09:00:49.573Z,9.83
2019-03-05T09:01:35.918Z,9.89
2019-03-05T09:03:23.429Z,9.92
2019-03-05T09:04:09.369Z,9.98
2019-03-05T09:04:52.501Z,9.89
2019-03-05T09:05:34.816Z,9.98
2019-03-05T09:06:17.015Z,10.02
2019-03-05T09:06:58.651Z,9.99
2019-03-05T09:07:40.620Z,9.95
2019-03-05T09:08:23.251Z,9.98
2019-03-05T09:09:07.504Z,9.88
2019-03-05T09:09:50.170Z,9.92
2019-03-05T09:10:33.707Z,9.91
2019-03-05T09:11:16.242Z,9.86
2019-03-05T09:11:59.719Z,9.91
2019-03-05T09:12:41.957Z,9.85
2019-03-05T09:13:32.518Z,9.91
2019-03-05T09:14:12.534Z,9.88
2019-03-05T09:14:54.791Z,9.86
2019-03-05T09:15:40.734Z,9.99
2019-03-05T09:16:21.923Z,10.04
2019-03-05T09:17:04.354Z,9.88
2019-03-05T09:17:44.999Z,9.93
2019-03-05T09:18:31.138Z,9.98
2019-03-05T09:19:14.454Z,9.98
2019-03-05T09:19:55.956Z,10.01
2019-03-05T09:20:41.192Z,10.06
2019-03-05T09:21:27.899Z,10.07
2019-03-05T09:22:08.558Z,10.17
2019-03-05T09:25:22.905Z,10.24
2019-03-05T09:28:14.033Z,10.24
2019-03-05T09:28:56.170Z,10.22
2019-03-05T09:29:36.572Z,10.22
2019-03-05T09:30:19.661Z,10.2
2019-03-05T09:31:03.224Z,10.24
2019-03-05T09:31:46.784Z,10.11
2019-03-05T09:32:33.822Z,10.11
2019-03-05T09:33:19.348Z,10.22
2019-03-05T09:34:04.920Z,10.22
2019-03-05T09:34:45.385Z,10.31
2019-03-05T09:37:04.838Z,10.32
2019-03-05T09:37:49.973Z,10.49
2019-03-05T09:38:31.476Z,10.49
2019-03-05T09:39:12.057Z,10.55
2019-03-05T09:39:52.698Z,10.46
2019-03-05T09:40:33.326Z,10.39
2019-03-05T09:41:13.936Z,10.44
2019-03-05T09:41:54.512Z,10.49
2019-03-05T09:42:39.727Z,10.49
2019-03-05T09:43:18.563Z,10.24
2019-03-05T09:44:00.585Z,10.35
2019-03-05T09:44:40.980Z,10.32
2019-03-05T09:45:24.644Z,10.46
2019-03-05T09:46:06.251Z,10.39
2019-03-05T09:46:48.088Z,10.47
2019-03-05T09:47:29.617Z,10.47
2019-03-05T09:48:10.365Z,10.54
2019-03-05T09:48:51.675Z,10.65
2019-03-05T09:49:32.267Z,10.57
2019-03-05T09:50:12.874Z,10.68
2019-03-05T09:50:53.520Z,10.58
2019-03-05T09:51:34.216Z,10.54
2019-03-05T09:52:14.889Z,10.65
2019-03-05T09:52:56.584Z,10.58
2019-03-05T09:53:38.011Z,10.55
2019-03-05T09:54:20.435Z,10.47
2019-03-05T09:55:01.659Z,10.57
2019-03-05T09:55:42.372Z,10.66
2019-03-05T09:56:23.362Z,10.68
2019-03-05T09:57:04.520Z,10.72
2019-03-05T09:57:49.670Z,10.76
2019-03-05T09:58:29.694Z,10.76
2019-03-05T09:59:11.114Z,10.84
2019-03-05T09:59:52.119Z,10.88
2019-03-05T10:00:32.907Z,10.95
2019-03-05T10:01:13.338Z,11.02
2019-03-05T10:01:56.182Z,10.93
2019-03-05T10:02:40.225Z,10.8
2019-03-05T10:03:19.053Z,10.76
2019-03-05T10:03:59.922Z,10.87
2019-03-05T10:04:40.840Z,10.93
2019-03-05T10:05:21.394Z,10.9
2019-03-05T10:06:02.246Z,11.02
2019-03-05T10:06:43.140Z,10.84
2019-03-05T10:07:24.025Z,10.75
2019-03-05T10:08:05.338Z,10.78
2019-03-05T10:08:45.963Z,10.78
2019-03-05T10:09:26.516Z,10.66
2019-03-05T10:10:07.167Z,10.78
2019-03-05T10:10:48.539Z,10.78
2019-03-05T10:11:30.716Z,10.73
2019-03-05T10:12:11.714Z,10.66
2019-03-05T10:12:52.232Z,10.58
2019-03-05T10:13:33.848Z,10.7
2019-03-05T10:14:14.682Z,10.73
2019-03-05T10:14:59.417Z,10.83
2019-03-05T10:15:41.818Z,10.87
2019-03-05T10:16:22.332Z,10.84
2019-03-05T10:17:06.834Z,10.78
2019-03-05T10:17:45.394Z,10.94
2019-03-05T10:18:27.311Z,10.84
2019-03-05T10:20:47.391Z,11.06
2019-03-05T10:21:45.493Z,11.06
2019-03-05T10:22:16.165Z,10.93
2019-03-05T10:22:58.055Z,11.03
2019-03-05T10:23:41.047Z,11.06
2019-03-05T10:24:21.368Z,11.03
2019-03-05T10:25:06.065Z,10.99
2019-03-05T10:25:47.089Z,10.88
2019-03-05T10:26:29.468Z,10.75
2019-03-05T10:27:13.724Z,10.73
2019-03-05T10:27:57.875Z,10.66
2019-03-05T10:28:39.853Z,10.73
2019-03-05T11:06:43.421Z,12.3
2019-03-05T11:07:28.523Z,12.16
2019-03-05T11:08:11.099Z,12.16
2019-03-05T11:08:54.300Z,12.15
2019-03-05T11:09:35.305Z,11.88
2019-03-05T11:10:16.656Z,11.98
2019-03-05T11:12:26.080Z,12.03
2019-03-05T11:20:39.104Z,12.41
2019-03-05T11:21:20.620Z,12.48
2019-03-05T11:22:04.234Z,12.58
2019-03-05T11:22:45.571Z,12.52
2019-03-05T11:23:27.184Z,12.58
2019-03-05T11:24:11.291Z,12.56
2019-03-05T11:24:52.645Z,12.44
2019-03-05T11:25:34.435Z,12.54
2019-03-05T11:26:14.872Z,12.61
2019-03-05T11:26:56.500Z,12.74
2019-03-05T11:27:40.192Z,12.77
2019-03-05T11:28:20.875Z,12.84
2019-03-05T11:29:02.939Z,12.85
2019-03-05T11:29:48.964Z,12.98
2019-03-05T11:30:36.283Z,12.98
2019-03-05T11:31:14.192Z,12.96
2019-03-05T11:31:54.851Z,12.94
2019-03-05T11:32:36.315Z,13.09
2019-03-05T11:33:19.027Z,12.96
2019-03-05T11:33:59.500Z,12.84
2019-03-05T11:34:41.593Z,12.79
2019-03-05T11:35:21.991Z,12.94
2019-03-05T11:36:02.672Z,12.8